X  Κλείσε Στοιχεία αεροπορικών μετεωρολογικών δεδομένων METAR        LGTS Thessaloniki Macedonia International
θερμοκρασία
11°C θερμοκρασία
11°C Σημείο δρόσου
100% Υγρασία



Ανεμος
13 KM/H
8 MPH
4 M/S
7 KTS



240°
DND
Τρέχουσες συνθήκες

Partly Cloudy Μερικώς συννεφιασμένος
πίεση 1011 (hPa) - 29.85 (inHg)
Ορατότητα 5 (μίλι) - 8 (km)
Aεροδρόμιο
Κωδικός αεροδρομίου LGTS

Τοποθεσία: Thessaloniki Macedonia International
Απόσταση: 85 (km)

Metar:
METAR LGTS 012350Z 24007KT 8000 SCT005 SCT020 11/11 Q1011 NOSIG

ώρα: 02-03-2024 01:50 EET